Time;durP1;ratioP1;P1;durP2;ratioP2;P2;SDS_P1;SDS_P2;PMS_P1;PMS_P2;Temp;Humidity;BMP_temperature;BMP_pressure;BME280_temperature;BME280_humidity;BME280_pressure;Samples;Min_cycle;Max_cycle;Signal;HPM_P1;HPM_P2
2024/02/23 00:00:05;;;;;;;;;;;;;;;18.08;33.16;100626.63;102917;1294;61760;-79
2024/02/23 00:02:31;;;;;;;;;;;;;;;18.08;32.97;100620.39;102756;1295;62154;-79
2024/02/23 00:04:57;;;;;;;;;;;;;;;18.08;32.96;100614.86;102639;1291;61321;-79
2024/02/23 00:07:22;;;;;;;;;;;;;;;18.07;33.09;100608.65;102638;1295;61637;-79
2024/02/23 00:09:48;;;;;;;;;;;;;;;18.07;33.03;100612.04;102929;1290;61948;-82
2024/02/23 00:12:14;;;;;;;;;;;;;;;18.07;32.99;100608.83;102680;1291;61407;-80
2024/02/23 00:14:39;;;;;;;;;;;;;;;18.07;33.03;100600.29;102865;1292;61385;-84
2024/02/23 00:17:05;;;;;;;;;;;;;;;18.07;33.05;100590.87;102751;1296;73501;-81
2024/02/23 00:19:30;;;;;;;;;;;;;;;18.07;33.13;100578.92;102854;1291;61434;-80
2024/02/23 00:21:59;;;;;;;;;;;;;;;18.07;32.94;100577.52;102645;1289;61401;-79
2024/02/23 00:24:27;;;;;;;;;;;;;;;18.06;32.94;100580.39;102919;1290;62679;-82
2024/02/23 00:26:53;;;;;;;;;;;;;;;18.06;32.99;100588.95;102841;1290;72370;-79
2024/02/23 00:29:19;;;;;;;;;;;;;;;18.06;33.02;100582.89;102676;1294;62600;-80
2024/02/23 00:31:47;;;;;;;;;;;;;;;18.06;32.96;100583.98;102741;1291;61494;-81
2024/02/23 00:34:14;;;;;;;;;;;;;;;18.06;32.98;100578.80;102673;1290;62085;-80
2024/02/23 00:36:40;;;;;;;;;;;;;;;18.06;33.01;100582.59;102645;1291;61483;-79
2024/02/23 00:39:07;;;;;;;;;;;;;;;18.05;32.99;100582.05;102757;1295;61416;-79
2024/02/23 00:41:33;;;;;;;;;;;;;;;18.06;32.99;100588.27;102691;1290;61333;-80
2024/02/23 00:43:58;;;;;;;;;;;;;;;18.05;32.96;100578.14;102707;1295;61745;-81
2024/02/23 00:46:24;;;;;;;;;;;;;;;18.06;32.94;100577.05;102938;1291;61311;-80
2024/02/23 00:48:51;;;;;;;;;;;;;;;18.05;32.90;100573.16;102630;1292;62494;-80
2024/02/23 00:51:16;;;;;;;;;;;;;;;18.05;33.02;100573.34;102820;1291;61393;-82
2024/02/23 00:53:43;;;;;;;;;;;;;;;18.04;32.96;100572.69;102651;1297;61401;-80
2024/02/23 00:56:08;;;;;;;;;;;;;;;18.05;33.08;100566.43;102563;1294;62205;-80
2024/02/23 00:58:34;;;;;;;;;;;;;;;18.05;33.01;100560.89;102626;1293;61421;-81
2024/02/23 01:01:00;;;;;;;;;;;;;;;18.04;32.92;100553.83;102695;1295;74729;-79
2024/02/23 01:03:25;;;;;;;;;;;;;;;18.04;32.99;100547.61;102597;1294;62295;-80
2024/02/23 01:05:51;;;;;;;;;;;;;;;18.04;32.99;100545.09;102562;1295;61962;-80
2024/02/23 01:08:16;;;;;;;;;;;;;;;18.04;33.02;100547.45;102863;1294;61881;-80
2024/02/23 01:10:42;;;;;;;;;;;;;;;18.04;33.01;100545.48;102600;1297;61440;-80
2024/02/23 01:13:08;;;;;;;;;;;;;;;18.04;32.89;100547.42;102578;1294;75327;-80
2024/02/23 01:15:34;;;;;;;;;;;;;;;18.04;32.91;100545.65;102568;1295;61549;-80
2024/02/23 01:17:59;;;;;;;;;;;;;;;18.04;32.89;100550.64;102596;1294;61904;-84
2024/02/23 01:20:25;;;;;;;;;;;;;;;18.03;33.00;100548.52;102571;1297;61931;-80
2024/02/23 01:22:51;;;;;;;;;;;;;;;18.03;32.84;100543.38;102566;1297;62474;-79
2024/02/23 01:25:16;;;;;;;;;;;;;;;18.03;33.01;100538.56;102680;1294;61844;-79
2024/02/23 01:27:44;;;;;;;;;;;;;;;18.03;32.95;100529.69;102559;1294;61408;-80
2024/02/23 01:30:13;;;;;;;;;;;;;;;18.03;32.93;100528.77;102685;1295;61467;-80
2024/02/23 01:32:39;;;;;;;;;;;;;;;18.03;32.85;100525.05;102770;1290;73368;-80
2024/02/23 01:35:08;;;;;;;;;;;;;;;18.03;32.87;100525.95;102691;1295;61404;-80
2024/02/23 01:37:33;;;;;;;;;;;;;;;18.02;32.85;100526.50;102671;1291;63012;-81
2024/02/23 01:39:59;;;;;;;;;;;;;;;18.02;33.02;100523.49;102664;1296;61394;-81
2024/02/23 01:42:25;;;;;;;;;;;;;;;18.03;32.90;100523.30;102734;1295;61401;-81
2024/02/23 01:44:51;;;;;;;;;;;;;;;18.02;32.98;100518.52;102707;1290;61456;-79
2024/02/23 01:47:17;;;;;;;;;;;;;;;18.02;32.96;100510.51;102684;1293;61724;-80
2024/02/23 01:49:43;;;;;;;;;;;;;;;18.02;33.02;100512.30;102682;1291;61903;-80
2024/02/23 01:52:08;;;;;;;;;;;;;;;18.02;32.92;100523.16;102739;1291;61547;-81
2024/02/23 01:54:37;;;;;;;;;;;;;;;18.01;32.80;100522.48;102812;1294;72416;-81
2024/02/23 01:57:03;;;;;;;;;;;;;;;18.01;32.89;100520.89;102830;1291;61371;-80
2024/02/23 01:59:28;;;;;;;;;;;;;;;18.02;32.90;100521.97;102782;1291;61517;-82
2024/02/23 02:01:54;;;;;;;;;;;;;;;18.01;32.94;100520.89;102861;1291;62422;-80
2024/02/23 02:04:20;;;;;;;;;;;;;;;18.01;32.95;100519.83;102646;1295;61360;-80
2024/02/23 02:06:46;;;;;;;;;;;;;;;18.01;32.87;100519.64;102662;1295;61549;-81
2024/02/23 02:09:12;;;;;;;;;;;;;;;18.01;32.85;100525.56;102681;1290;74499;-80
2024/02/23 02:11:49;;;;;;;;;;;;;;;18.01;32.87;100527.67;102935;1294;61421;-80
2024/02/23 02:14:15;;;;;;;;;;;;;;;18.01;32.88;100528.22;102703;1297;61425;-81
2024/02/23 02:16:41;;;;;;;;;;;;;;;18.01;32.96;100520.92;102650;1290;62925;-80
2024/02/23 02:19:07;;;;;;;;;;;;;;;18.01;32.85;100519.86;102790;1289;62486;-82
2024/02/23 02:21:33;;;;;;;;;;;;;;;18.01;32.89;100525.73;102825;1291;61367;-79
2024/02/23 02:23:58;;;;;;;;;;;;;;;18.01;32.96;100528.59;102658;1289;61404;-79
2024/02/23 02:26:24;;;;;;;;;;;;;;;18.00;32.90;100526.99;102698;1291;61792;-81
2024/02/23 02:28:50;;;;;;;;;;;;;;;18.01;32.92;100524.67;102870;1291;61283;-82
2024/02/23 02:31:16;;;;;;;;;;;;;;;18.00;32.86;100530.55;102937;1290;75614;-81
2024/02/23 02:33:41;;;;;;;;;;;;;;;18.00;32.98;100532.19;102627;1297;62024;-80
2024/02/23 02:36:07;;;;;;;;;;;;;;;18.00;32.98;100527.89;102703;1292;61733;-82
2024/02/23 02:38:34;;;;;;;;;;;;;;;17.99;32.82;100520.10;102837;1291;62416;-80
2024/02/23 02:41:02;;;;;;;;;;;;;;;17.99;32.84;100521.55;102640;1296;61388;-82
2024/02/23 02:43:27;;;;;;;;;;;;;;;17.99;32.89;100518.90;102778;1290;62359;-80
2024/02/23 02:45:53;;;;;;;;;;;;;;;17.99;32.95;100513.92;102847;1292;61394;-80
2024/02/23 02:48:19;;;;;;;;;;;;;;;17.99;32.84;100508.92;102780;1290;62080;-80
2024/02/23 02:50:44;;;;;;;;;;;;;;;17.99;32.96;100504.84;102711;1290;61338;-81
2024/02/23 02:53:10;;;;;;;;;;;;;;;17.98;32.94;100503.81;102724;1291;74414;-81
2024/02/23 02:55:44;;;;;;;;;;;;;;;17.98;32.90;100502.21;102645;1292;61356;-80
2024/02/23 02:58:11;;;;;;;;;;;;;;;17.98;32.88;100503.64;102843;1291;62661;-81
2024/02/23 03:00:36;;;;;;;;;;;;;;;17.98;32.88;100504.38;102715;1289;61789;-80
2024/02/23 03:03:02;;;;;;;;;;;;;;;17.97;32.89;100511.53;102800;1292;61411;-80
2024/02/23 03:05:28;;;;;;;;;;;;;;;17.98;32.87;100518.80;102650;1290;61452;-83
2024/02/23 03:07:53;;;;;;;;;;;;;;;17.98;32.95;100522.67;102729;1291;62012;-80
2024/02/23 03:10:19;;;;;;;;;;;;;;;17.97;32.92;100523.27;102824;1292;62368;-81
2024/02/23 03:12:44;;;;;;;;;;;;;;;17.98;32.87;100523.63;102652;1295;72516;-81
2024/02/23 03:15:10;;;;;;;;;;;;;;;17.98;32.91;100519.88;102679;1291;62562;-82
2024/02/23 03:17:36;;;;;;;;;;;;;;;17.97;32.93;100518.66;102863;1292;61404;-81
2024/02/23 03:20:05;;;;;;;;;;;;;;;17.97;32.86;100518.30;102906;1291;61309;-79
2024/02/23 03:22:31;;;;;;;;;;;;;;;17.97;32.84;100521.67;102945;1290;72447;-81
2024/02/23 03:24:56;;;;;;;;;;;;;;;17.97;32.81;100525.61;103017;1289;61391;-80
2024/02/23 03:27:27;;;;;;;;;;;;;;;17.97;32.82;100527.04;103121;1291;61398;-80
2024/02/23 03:29:52;;;;;;;;;;;;;;;17.97;33.01;100530.61;102603;1294;61369;-80
2024/02/23 03:32:18;;;;;;;;;;;;;;;17.97;32.82;100535.75;102897;1289;63005;-81
2024/02/23 03:34:43;;;;;;;;;;;;;;;17.96;32.92;100532.24;102634;1290;61425;-81
2024/02/23 03:37:10;;;;;;;;;;;;;;;17.97;32.91;100534.90;102633;1295;61417;-80
2024/02/23 03:39:36;;;;;;;;;;;;;;;17.97;32.87;100534.38;102664;1291;61481;-79
2024/02/23 03:42:02;;;;;;;;;;;;;;;17.96;32.88;100533.87;102710;1295;61390;-79
2024/02/23 03:44:28;;;;;;;;;;;;;;;17.96;32.93;100534.95;102939;1291;62391;-81
2024/02/23 03:46:54;;;;;;;;;;;;;;;17.96;32.95;100533.49;102627;1290;75450;-81
2024/02/23 03:49:19;;;;;;;;;;;;;;;17.96;32.78;100535.29;102921;1291;61310;-83
2024/02/23 03:51:45;;;;;;;;;;;;;;;17.96;32.93;100529.96;102692;1291;61470;-82
2024/02/23 03:54:10;;;;;;;;;;;;;;;17.96;32.92;100530.86;102640;1291;61404;-81
2024/02/23 03:56:41;;;;;;;;;;;;;;;17.95;32.84;100530.17;102882;1289;61403;-81
2024/02/23 03:59:09;;;;;;;;;;;;;;;17.95;32.87;100528.21;102701;1290;74373;-81
2024/02/23 04:01:36;;;;;;;;;;;;;;;17.95;32.98;100530.19;102712;1291;61532;-82
2024/02/23 04:04:01;;;;;;;;;;;;;;;17.95;33.03;100528.79;102894;1291;61408;-81
2024/02/23 04:06:27;;;;;;;;;;;;;;;17.95;32.94;100527.52;102638;1291;61390;-81
2024/02/23 04:08:52;;;;;;;;;;;;;;;17.95;32.88;100528.23;102814;1291;61404;-82
2024/02/23 04:11:18;;;;;;;;;;;;;;;17.94;32.84;100528.10;102303;1289;746957;-80
2024/02/23 04:13:43;;;;;;;;;;;;;;;17.94;33.05;100523.83;102857;1292;62453;-80
2024/02/23 04:16:09;;;;;;;;;;;;;;;17.94;32.90;100522.40;102992;1291;61296;-79
2024/02/23 04:18:35;;;;;;;;;;;;;;;17.94;32.87;100526.51;102852;1291;62181;-80
2024/02/23 04:21:00;;;;;;;;;;;;;;;17.94;32.86;100524.38;102657;1291;61481;-83
2024/02/23 04:23:26;;;;;;;;;;;;;;;17.93;32.92;100520.48;102757;1295;61366;-79
2024/02/23 04:25:52;;;;;;;;;;;;;;;17.93;32.85;100522.06;102866;1292;61394;-79
2024/02/23 04:28:18;;;;;;;;;;;;;;;17.93;32.83;100523.86;102795;1291;61404;-81
2024/02/23 04:30:43;;;;;;;;;;;;;;;17.93;32.98;100521.92;102665;1291;73706;-79
2024/02/23 04:33:09;;;;;;;;;;;;;;;17.93;32.97;100523.37;102810;1292;61512;-79
2024/02/23 04:35:34;;;;;;;;;;;;;;;17.92;32.97;100520.16;102665;1291;61482;-80
2024/02/23 04:38:00;;;;;;;;;;;;;;;17.93;32.89;100520.16;102710;1290;62213;-80
2024/02/23 04:40:26;;;;;;;;;;;;;;;17.92;32.93;100520.73;102784;1294;61401;-80
2024/02/23 04:42:52;;;;;;;;;;;;;;;17.92;32.81;100518.43;102801;1291;62566;-80
2024/02/23 04:45:18;;;;;;;;;;;;;;;17.92;32.88;100516.64;102761;1291;74481;-81
2024/02/23 04:47:44;;;;;;;;;;;;;;;17.91;32.91;100517.92;102731;1292;61516;-79
2024/02/23 04:50:10;;;;;;;;;;;;;;;17.91;32.78;100517.55;102978;1289;61378;-80
2024/02/23 04:52:35;;;;;;;;;;;;;;;17.91;32.87;100517.73;102782;1292;61837;-80
2024/02/23 04:55:01;;;;;;;;;;;;;;;17.91;32.93;100519.00;102653;1290;62588;-80
2024/02/23 04:57:27;;;;;;;;;;;;;;;17.91;32.89;100517.42;102765;1292;61488;-81
2024/02/23 05:00:03;;;;;;;;;;;;;;;17.91;32.82;100520.81;102817;1291;61392;-79
2024/02/23 05:02:34;;;;;;;;;;;;;;;17.91;32.86;100519.36;102837;1290;61652;-79
2024/02/23 05:05:04;;;;;;;;;;;;;;;17.90;32.88;100522.05;102943;1292;72554;-79
2024/02/23 05:07:33;;;;;;;;;;;;;;;17.90;32.92;100520.11;102782;1291;74424;-80
2024/02/23 05:09:58;;;;;;;;;;;;;;;17.90;32.90;100522.25;102661;1291;61375;-80
2024/02/23 05:12:24;;;;;;;;;;;;;;;17.90;32.85;100521.73;102833;1291;62367;-81
2024/02/23 05:14:49;;;;;;;;;;;;;;;17.90;32.89;100525.46;102716;1294;61456;-83
2024/02/23 05:17:15;;;;;;;;;;;;;;;17.90;32.83;100526.55;102705;1291;61452;-79
2024/02/23 05:19:41;;;;;;;;;;;;;;;17.90;32.91;100531.01;102848;1291;61452;-81
2024/02/23 05:22:06;;;;;;;;;;;;;;;17.90;32.83;100533.85;102688;1295;61443;-80
2024/02/23 05:24:32;;;;;;;;;;;;;;;17.89;32.91;100531.19;102721;1291;62433;-79
2024/02/23 05:26:58;;;;;;;;;;;;;;;17.90;32.92;100532.61;102856;1295;62230;-80
2024/02/23 05:29:24;;;;;;;;;;;;;;;17.89;32.89;100535.30;102788;1292;61471;-79
2024/02/23 05:31:51;;;;;;;;;;;;;;;17.89;32.88;100539.20;102766;1289;62170;-79
2024/02/23 05:34:18;;;;;;;;;;;;;;;17.89;32.83;100538.87;102786;1295;61321;-83
2024/02/23 05:36:43;;;;;;;;;;;;;;;17.89;32.75;100539.44;102856;1294;61411;-79
2024/02/23 05:39:11;;;;;;;;;;;;;;;17.89;32.92;100539.24;102764;1294;62302;-79
2024/02/23 05:41:36;;;;;;;;;;;;;;;17.89;32.83;100544.03;102726;1292;61388;-80
2024/02/23 05:44:05;;;;;;;;;;;;;;;17.88;32.88;100541.40;102854;1292;61405;-80
2024/02/23 05:46:39;;;;;;;;;;;;;;;17.89;32.88;100540.51;102797;1289;61516;-79
2024/02/23 05:49:05;;;;;;;;;;;;;;;17.88;32.89;100543.20;102697;1294;74709;-82
2024/02/23 05:51:31;;;;;;;;;;;;;;;17.88;32.80;100544.65;102784;1290;61355;-81
2024/02/23 05:53:57;;;;;;;;;;;;;;;17.88;32.89;100549.48;102661;1290;62598;-81
2024/02/23 05:56:24;;;;;;;;;;;;;;;17.88;32.87;100550.19;102657;1291;61329;-79
2024/02/23 05:58:51;;;;;;;;;;;;;;;17.88;32.90;100551.42;102851;1291;61449;-80
2024/02/23 06:01:17;;;;;;;;;;;;;;;17.87;32.87;100557.33;102647;1291;61324;-83
2024/02/23 06:03:44;;;;;;;;;;;;;;;17.88;32.83;100556.23;102794;1291;61853;-80
2024/02/23 06:06:10;;;;;;;;;;;;;;;17.87;32.94;100554.13;102725;1292;61457;-81
2024/02/23 06:08:36;;;;;;;;;;;;;;;17.87;32.92;100557.89;102652;1291;61488;-81
2024/02/23 06:11:03;;;;;;;;;;;;;;;17.87;32.83;100559.84;102829;1292;61414;-79
2024/02/23 06:13:32;;;;;;;;;;;;;;;17.86;32.84;100566.45;102723;1291;61389;-83
2024/02/23 06:15:57;;;;;;;;;;;;;;;17.87;32.78;100570.17;102614;1295;73537;-80
2024/02/23 06:18:24;;;;;;;;;;;;;;;17.86;32.90;100567.02;102906;1291;62550;-79
2024/02/23 06:20:51;;;;;;;;;;;;;;;17.86;32.89;100568.27;102797;1294;61654;-80
2024/02/23 06:23:17;;;;;;;;;;;;;;;17.86;32.79;100572.16;102637;1291;62677;-81
2024/02/23 06:25:46;;;;;;;;;;;;;;;17.86;32.85;100575.02;102813;1294;61365;-80
2024/02/23 06:28:11;;;;;;;;;;;;;;;17.86;32.77;100583.05;102676;1291;75300;-80
2024/02/23 06:30:40;;;;;;;;;;;;;;;17.85;32.91;100582.70;102690;1291;61721;-82
2024/02/23 06:33:06;;;;;;;;;;;;;;;17.86;32.80;100588.23;102688;1297;61406;-79
2024/02/23 06:35:32;;;;;;;;;;;;;;;17.86;32.93;100583.06;102660;1291;61324;-80
2024/02/23 06:37:57;;;;;;;;;;;;;;;17.85;32.90;100585.23;102696;1292;62550;-82
2024/02/23 06:40:23;;;;;;;;;;;;;;;17.85;32.88;100579.18;102934;1294;61349;-80
2024/02/23 06:42:48;;;;;;;;;;;;;;;17.85;32.86;100573.88;102678;1292;61441;-80
2024/02/23 06:45:14;;;;;;;;;;;;;;;17.85;32.89;100570.81;102653;1291;61378;-81
2024/02/23 06:47:40;;;;;;;;;;;;;;;17.85;32.78;100567.13;102811;1294;62913;-79
2024/02/23 06:50:06;;;;;;;;;;;;;;;17.84;32.92;100566.27;102723;1291;61406;-81
2024/02/23 06:52:33;;;;;;;;;;;;;;;17.84;32.83;100565.17;102717;1290;62002;-81
2024/02/23 06:54:59;;;;;;;;;;;;;;;17.84;32.82;100567.84;102818;1292;61404;-81
2024/02/23 06:57:26;;;;;;;;;;;;;;;17.84;32.87;100571.41;102738;1292;61392;-80
2024/02/23 06:59:51;;;;;;;;;;;;;;;17.84;32.93;100577.30;102833;1293;62316;-80
2024/02/23 07:02:17;;;;;;;;;;;;;;;17.84;32.93;100571.07;102829;1292;61849;-80
2024/02/23 07:04:43;;;;;;;;;;;;;;;17.84;32.85;100577.31;102888;1292;61417;-80
2024/02/23 07:07:11;;;;;;;;;;;;;;;17.83;32.85;100582.85;102675;1291;61420;-80
2024/02/23 07:09:37;;;;;;;;;;;;;;;17.84;32.91;100582.65;102998;1290;73724;-81
2024/02/23 07:12:03;;;;;;;;;;;;;;;17.83;32.90;100587.32;102651;1291;61782;-79
2024/02/23 07:14:29;;;;;;;;;;;;;;;17.83;32.86;100591.05;102650;1292;61894;-80
2024/02/23 07:16:54;;;;;;;;;;;;;;;17.83;32.74;100591.40;102841;1291;62595;-80
2024/02/23 07:19:20;;;;;;;;;;;;;;;17.84;32.87;100591.56;102910;1289;61436;-80
2024/02/23 07:21:46;;;;;;;;;;;;;;;17.83;32.95;100587.67;102809;1296;61392;-80
2024/02/23 07:24:12;;;;;;;;;;;;;;;17.83;32.93;100588.73;102677;1292;74617;-79
2024/02/23 07:26:37;;;;;;;;;;;;;;;17.84;32.95;100589.23;102710;1291;61398;-80
2024/02/23 07:29:03;;;;;;;;;;;;;;;17.83;32.92;100583.55;102903;1294;62032;-80
2024/02/23 07:31:28;;;;;;;;;;;;;;;17.84;32.94;100582.48;102853;1291;62676;-80
2024/02/23 07:33:54;;;;;;;;;;;;;;;17.83;32.92;100577.17;102887;1290;61369;-81
2024/02/23 07:36:20;;;;;;;;;;;;;;;17.84;32.89;100579.08;102722;1290;75568;-81
2024/02/23 07:38:47;;;;;;;;;;;;;;;17.83;32.93;100577.52;102764;1292;61411;-81
2024/02/23 07:41:21;;;;;;;;;;;;;;;17.84;32.86;100577.30;102905;1290;61420;-80
2024/02/23 07:43:47;;;;;;;;;;;;;;;17.84;32.97;100576.23;102874;1291;72621;-81
2024/02/23 07:46:12;;;;;;;;;;;;;;;17.84;32.94;100581.73;102882;1292;61411;-80
2024/02/23 07:48:38;;;;;;;;;;;;;;;17.84;32.93;100583.17;102789;1291;61995;-82
2024/02/23 07:51:04;;;;;;;;;;;;;;;17.84;32.90;100584.03;102869;1291;61294;-79
2024/02/23 07:53:30;;;;;;;;;;;;;;;17.85;32.94;100582.94;102699;1297;61404;-82
2024/02/23 07:55:59;;;;;;;;;;;;;;;17.85;32.93;100582.94;103027;1292;61420;-80
2024/02/23 07:58:27;;;;;;;;;;;;;;;17.85;32.93;100589.52;102715;1290;74594;-81
2024/02/23 08:00:53;;;;;;;;;;;;;;;17.85;32.94;100587.73;102863;1292;61327;-80
2024/02/23 08:03:19;;;;;;;;;;;;;;;17.86;33.07;100591.42;102842;1294;61795;-81
2024/02/23 08:05:44;;;;;;;;;;;;;;;17.86;32.96;100591.25;102657;1291;61341;-80
2024/02/23 08:08:10;;;;;;;;;;;;;;;17.86;33.02;100588.23;102672;1292;62531;-81
2024/02/23 08:10:38;;;;;;;;;;;;;;;17.86;32.98;100588.17;102776;1291;61385;-81
2024/02/23 08:13:04;;;;;;;;;;;;;;;17.86;33.02;100583.91;102708;1291;62144;-80
2024/02/23 08:15:29;;;;;;;;;;;;;;;17.87;32.96;100586.89;102765;1291;61560;-82
2024/02/23 08:17:55;;;;;;;;;;;;;;;17.87;33.08;100588.66;102652;1289;61412;-81
2024/02/23 08:20:21;;;;;;;;;;;;;;;17.87;32.95;100590.79;102712;1294;62296;-84
2024/02/23 08:22:55;;;;;;;;;;;;;;;17.87;33.13;100592.75;102772;1297;62346;-80
2024/02/23 08:25:21;;;;;;;;;;;;;;;17.88;33.14;100591.66;102631;1293;61471;-83
2024/02/23 08:27:47;;;;;;;;;;;;;;;17.88;33.23;100593.08;102656;1294;62040;-79
2024/02/23 08:30:13;;;;;;;;;;;;;;;17.88;32.97;100595.88;102646;1292;61462;-79
2024/02/23 08:32:39;;;;;;;;;;;;;;;17.89;33.14;100599.05;102567;1294;61877;-82
2024/02/23 08:35:05;;;;;;;;;;;;;;;17.90;33.09;100595.98;102679;1294;62306;-80
2024/02/23 08:37:33;;;;;;;;;;;;;;;17.90;33.20;100590.64;102672;1297;61881;-81
2024/02/23 08:39:59;;;;;;;;;;;;;;;17.90;33.07;100586.72;102593;1294;61897;-82
2024/02/23 08:42:24;;;;;;;;;;;;;;;17.91;33.13;100590.20;102674;1294;61406;-79
2024/02/23 08:44:50;;;;;;;;;;;;;;;17.92;33.22;100587.52;102640;1295;61408;-82
2024/02/23 08:47:15;;;;;;;;;;;;;;;17.92;33.28;100586.24;102666;1294;61446;-81
2024/02/23 08:49:41;;;;;;;;;;;;;;;17.93;33.19;100590.67;102651;1297;61376;-82
2024/02/23 08:52:06;;;;;;;;;;;;;;;17.93;33.16;100591.38;102728;1294;62374;-80
2024/02/23 08:54:32;;;;;;;;;;;;;;;17.94;33.14;100593.48;102740;1291;61422;-80
2024/02/23 08:56:57;;;;;;;;;;;;;;;17.94;33.23;100591.31;102699;1292;62585;-82
2024/02/23 08:59:23;;;;;;;;;;;;;;;17.95;33.11;100595.02;102838;1291;61410;-80
2024/02/23 09:01:50;;;;;;;;;;;;;;;17.95;33.15;100590.55;102763;1290;72197;-81
2024/02/23 09:04:16;;;;;;;;;;;;;;;17.96;33.29;100592.64;102741;1291;61402;-81
2024/02/23 09:06:41;;;;;;;;;;;;;;;17.96;33.19;100593.16;102728;1295;62360;-83
2024/02/23 09:09:08;;;;;;;;;;;;;;;17.97;33.15;100593.48;102768;1291;61408;-80
2024/02/23 09:11:34;;;;;;;;;;;;;;;17.98;33.17;100598.75;102743;1292;61319;-80
2024/02/23 09:13:59;;;;;;;;;;;;;;;17.98;33.28;100601.03;102744;1289;62385;-80
2024/02/23 09:16:25;;;;;;;;;;;;;;;17.99;33.27;100603.48;102805;1291;61335;-79
2024/02/23 09:18:51;;;;;;;;;;;;;;;18.00;33.27;100600.94;102707;1291;61395;-82
2024/02/23 09:21:16;;;;;;;;;;;;;;;18.00;33.26;100597.86;102773;1291;61329;-80
2024/02/23 09:23:42;;;;;;;;;;;;;;;18.01;33.16;100599.98;102664;1291;61888;-80
2024/02/23 09:26:11;;;;;;;;;;;;;;;18.02;33.26;100603.67;102719;1290;61414;-83
2024/02/23 09:28:41;;;;;;;;;;;;;;;18.03;33.22;100604.51;102842;1290;61398;-82
2024/02/23 09:31:06;;;;;;;;;;;;;;;18.03;33.21;100601.44;102749;1291;61411;-83
2024/02/23 09:33:32;;;;;;;;;;;;;;;18.04;33.34;100599.95;102658;1295;61853;-80
2024/02/23 09:35:58;;;;;;;;;;;;;;;18.05;33.21;100598.52;102789;1293;61488;-80
2024/02/23 09:38:24;;;;;;;;;;;;;;;18.05;33.23;100594.36;102686;1291;61405;-80
2024/02/23 09:40:51;;;;;;;;;;;;;;;18.06;33.25;100591.83;102773;1293;61416;-81
2024/02/23 09:43:16;;;;;;;;;;;;;;;18.06;33.23;100586.27;102690;1291;61491;-81
2024/02/23 09:45:45;;;;;;;;;;;;;;;18.07;33.31;100585.72;102720;1292;62422;-79
2024/02/23 09:48:11;;;;;;;;;;;;;;;18.08;33.33;100578.17;102740;1292;74525;-83
2024/02/23 09:50:37;;;;;;;;;;;;;;;18.08;33.33;100581.91;102716;1292;61483;-81
2024/02/23 09:53:04;;;;;;;;;;;;;;;18.09;33.19;100589.33;102789;1292;62650;-80
2024/02/23 09:55:31;;;;;;;;;;;;;;;18.10;33.14;100590.52;102726;1291;73147;-80
2024/02/23 09:57:57;;;;;;;;;;;;;;;18.11;33.28;100584.79;102752;1291;61465;-79
2024/02/23 10:00:23;;;;;;;;;;;;;;;18.12;33.31;100586.87;102895;1293;61445;-79
2024/02/23 10:02:49;;;;;;;;;;;;;;;18.12;33.19;100584.86;102786;1291;62185;-80
2024/02/23 10:05:14;;;;;;;;;;;;;;;18.13;33.31;100577.02;102720;1290;61456;-79
2024/02/23 10:07:40;;;;;;;;;;;;;;;18.13;33.35;100577.88;102778;1291;62195;-80
2024/02/23 10:10:07;;;;;;;;;;;;;;;18.14;33.29;100575.34;102712;1291;61394;-80
2024/02/23 10:12:33;;;;;;;;;;;;;;;18.14;33.25;100572.98;102879;1291;61455;-79
2024/02/23 10:14:59;;;;;;;;;;;;;;;18.15;33.43;100574.73;102702;1292;61876;-80
2024/02/23 10:17:25;;;;;;;;;;;;;;;18.15;33.20;100573.09;102767;1292;72576;-79
2024/02/23 10:19:51;;;;;;;;;;;;;;;18.16;33.24;100570.57;102854;1289;62347;-79
2024/02/23 10:22:24;;;;;;;;;;;;;;;18.16;33.30;100569.48;102690;1291;62287;-81
2024/02/23 10:24:53;;;;;;;;;;;;;;;18.16;33.41;100566.42;102736;1290;62441;-82
2024/02/23 10:27:22;;;;;;;;;;;;;;;18.17;33.36;100564.78;102955;1296;71595;-81
2024/02/23 10:29:50;;;;;;;;;;;;;;;18.18;33.32;100564.92;102759;1295;74449;-79
2024/02/23 10:32:16;;;;;;;;;;;;;;;18.18;33.41;100562.45;103128;1292;61393;-80
2024/02/23 10:34:42;;;;;;;;;;;;;;;18.18;33.33;100558.29;103146;1295;62298;-82
2024/02/23 10:37:08;;;;;;;;;;;;;;;18.19;33.36;100559.52;102770;1291;61392;-79
2024/02/23 10:39:36;;;;;;;;;;;;;;;18.19;33.42;100558.09;102856;1291;62399;-80
2024/02/23 10:42:03;;;;;;;;;;;;;;;18.19;33.30;100553.96;102916;1297;61347;-79
2024/02/23 10:44:30;;;;;;;;;;;;;;;18.19;33.39;100555.20;102829;1291;61395;-81
2024/02/23 10:46:55;;;;;;;;;;;;;;;18.19;33.47;100555.39;102693;1289;73411;-81
2024/02/23 10:49:25;;;;;;;;;;;;;;;18.19;33.42;100547.38;102757;1294;61398;-81
2024/02/23 10:51:54;;;;;;;;;;;;;;;18.19;33.38;100537.40;103297;1290;61282;-79
2024/02/23 10:54:21;;;;;;;;;;;;;;;18.19;33.43;100538.67;103001;1290;61315;-80
2024/02/23 10:56:47;;;;;;;;;;;;;;;18.19;33.40;100536.17;102899;1291;61343;-80
2024/02/23 10:59:12;;;;;;;;;;;;;;;18.18;33.55;100534.08;102923;1297;62051;-79
2024/02/23 11:01:39;;;;;;;;;;;;;;;18.18;33.44;100531.40;102945;1291;61772;-79
2024/02/23 11:04:06;;;;;;;;;;;;;;;18.18;33.57;100532.14;103036;1291;61397;-79
2024/02/23 11:06:33;;;;;;;;;;;;;;;18.18;33.44;100532.67;102849;1291;61400;-81
2024/02/23 11:09:08;;;;;;;;;;;;;;;18.18;33.54;100533.76;103061;1294;61363;-79
2024/02/23 11:11:34;;;;;;;;;;;;;;;18.17;33.50;100531.11;103551;1293;61288;-80
2024/02/23 11:14:07;;;;;;;;;;;;;;;18.17;33.42;100525.98;103349;1292;62428;-79
2024/02/23 11:16:33;;;;;;;;;;;;;;;18.16;33.45;100526.39;103134;1291;72365;-80
2024/02/23 11:19:09;;;;;;;;;;;;;;;18.16;33.37;100520.54;103048;1291;61397;-80
2024/02/23 11:21:38;;;;;;;;;;;;;;;18.16;33.48;100524.79;102995;1294;61307;-79
2024/02/23 11:24:04;;;;;;;;;;;;;;;18.16;33.47;100526.05;103214;1295;62563;-80
2024/02/23 11:26:29;;;;;;;;;;;;;;;18.16;33.57;100532.83;103297;1291;61334;-80
2024/02/23 11:28:55;;;;;;;;;;;;;;;18.15;33.56;100526.42;103133;1294;62530;-80
2024/02/23 11:31:21;;;;;;;;;;;;;;;18.15;33.41;100522.36;103008;1291;62564;-80
2024/02/23 11:33:54;;;;;;;;;;;;;;;18.14;33.49;100523.64;102752;1291;61347;-80
2024/02/23 11:36:29;;;;;;;;;;;;;;;18.14;33.48;100520.79;102681;1295;73321;-80
2024/02/23 11:39:00;;;;;;;;;;;;;;;18.14;33.53;100519.23;102943;1292;74401;-80
2024/02/23 11:41:26;;;;;;;;;;;;;;;18.13;33.46;100516.42;102858;1290;61307;-80
2024/02/23 11:43:52;;;;;;;;;;;;;;;18.13;33.34;100509.52;102786;1294;61356;-80
2024/02/23 11:46:18;;;;;;;;;;;;;;;18.12;33.35;100509.71;102664;1291;62174;-81
2024/02/23 11:48:46;;;;;;;;;;;;;;;18.11;33.42;100513.15;102721;1292;62258;-80
2024/02/23 11:51:14;;;;;;;;;;;;;;;18.12;33.41;100510.63;102680;1295;61320;-79
2024/02/23 11:53:40;;;;;;;;;;;;;;;18.11;33.46;100510.69;102657;1295;61397;-81
2024/02/23 11:56:06;;;;;;;;;;;;;;;18.10;33.32;100508.41;102869;1292;61473;-80
2024/02/23 11:58:34;;;;;;;;;;;;;;;18.10;33.41;100503.98;102667;1292;61453;-81
2024/02/23 12:01:02;;;;;;;;;;;;;;;18.10;33.39;100505.76;102914;1292;61735;-81
2024/02/23 12:03:29;;;;;;;;;;;;;;;18.09;33.31;100502.02;102699;1292;61324;-81
2024/02/23 12:05:56;;;;;;;;;;;;;;;18.10;33.42;100498.29;102758;1295;73267;-80
2024/02/23 12:08:21;;;;;;;;;;;;;;;18.09;33.39;100498.64;102679;1296;61700;-79
2024/02/23 12:10:47;;;;;;;;;;;;;;;18.09;33.30;100498.89;102689;1295;61485;-80
2024/02/23 12:13:14;;;;;;;;;;;;;;;18.10;33.35;100498.27;102713;1291;61405;-80
2024/02/23 12:15:39;;;;;;;;;;;;;;;18.09;33.40;100492.23;102692;1291;61976;-80
2024/02/23 12:18:05;;;;;;;;;;;;;;;18.10;33.44;100489.55;102738;1294;61874;-79
2024/02/23 12:20:34;;;;;;;;;;;;;;;18.10;33.34;100489.00;102715;1291;62216;-81